White Elm, Iowa
Current Conditions -  °F | °C
As of 8:15 AM on Saturday 25 Oct 2014 (Local Time) from KFFL Reporting Station
NA  
Wind Chill: 45°   Ceiling: NA
Heat Index: 48°   Visibility: NA
Dew Point: 48°   Wind: 7mph
Humidity: 100%   Direction: 310°NW
Pressure: 30.02"   Gusts: NA
Location:  40.8736°N, 92.1109°W
Report Text: KFFL 251315Z AUTO 31006KT 09/09 A3002 RMK AO2
Loading
Personal Weather Stations






























Interactive Weather Map
Tropical Storm Tracking
New forecast layout! Learn more

10-Day Weather Forecast

Advertisements
Track Severe Weather on mobile